createdAt,value
2017-07-05T00:00:08.020Z,64.90
2017-07-05T00:02:41.854Z,65.20
2017-07-05T00:05:15.472Z,66.70
2017-07-05T00:07:49.326Z,64.80
2017-07-05T00:10:23.822Z,65.70
2017-07-05T00:12:57.741Z,65.80
2017-07-05T00:15:32.254Z,65.00
2017-07-05T00:18:06.346Z,65.00
2017-07-05T00:20:40.781Z,67.90
2017-07-05T00:23:14.800Z,67.80
2017-07-05T00:25:49.218Z,66.70
2017-07-05T00:28:24.055Z,66.80
2017-07-05T00:30:57.735Z,67.50
2017-07-05T00:33:32.313Z,68.30
2017-07-05T00:36:06.313Z,67.10
2017-07-05T00:38:40.195Z,67.20
2017-07-05T00:41:13.797Z,67.90
2017-07-05T00:43:47.606Z,67.80
2017-07-05T00:46:22.121Z,67.00
2017-07-05T00:48:56.122Z,66.80
2017-07-05T00:51:31.481Z,68.70
2017-07-05T00:54:05.370Z,68.70
2017-07-05T00:56:39.801Z,70.20
2017-07-05T00:59:14.568Z,66.80
2017-07-05T01:01:48.570Z,67.40
2017-07-05T01:04:22.439Z,66.50
2017-07-05T01:06:56.130Z,67.10
2017-07-05T01:09:29.881Z,67.20
2017-07-05T01:12:05.001Z,69.10
2017-07-05T01:14:39.097Z,69.00
2017-07-05T01:17:12.714Z,69.40
2017-07-05T01:19:46.594Z,70.50
2017-07-05T01:22:20.245Z,70.10
2017-07-05T01:24:53.997Z,70.00
2017-07-05T01:27:27.708Z,69.30
2017-07-05T01:30:01.429Z,70.00
2017-07-05T01:32:35.142Z,69.80
2017-07-05T01:35:08.808Z,70.20
2017-07-05T01:37:43.359Z,70.40
2017-07-05T01:40:17.908Z,68.60
2017-07-05T01:42:51.823Z,69.20
2017-07-05T01:45:25.533Z,70.40
2017-07-05T01:47:59.162Z,69.20
2017-07-05T01:50:33.673Z,70.40
2017-07-05T01:53:08.251Z,70.50
2017-07-05T01:55:43.050Z,70.50
2017-07-05T01:58:16.869Z,70.60
2017-07-05T02:00:50.722Z,69.80
2017-07-05T02:03:24.431Z,68.30
2017-07-05T02:05:59.044Z,70.90
2017-07-05T02:08:32.866Z,69.90
2017-07-05T02:11:06.564Z,70.70
2017-07-05T02:13:41.058Z,69.40
2017-07-05T02:16:15.182Z,69.30
2017-07-05T02:18:48.803Z,70.20
2017-07-05T02:21:22.588Z,70.50
2017-07-05T02:23:56.198Z,70.50
2017-07-05T02:26:29.970Z,70.50
2017-07-05T02:29:04.537Z,69.70
2017-07-05T02:31:38.337Z,69.50
2017-07-05T02:34:12.009Z,69.80
2017-07-05T02:36:45.736Z,70.20
2017-07-05T02:39:20.241Z,69.90
2017-07-05T02:41:54.265Z,69.70
2017-07-05T02:44:28.727Z,71.60
2017-07-05T02:47:02.604Z,72.10
2017-07-05T02:49:36.287Z,70.20
2017-07-05T02:52:10.081Z,72.30
2017-07-05T02:54:44.510Z,70.60
2017-07-05T02:57:18.446Z,70.50
2017-07-05T02:59:52.934Z,70.20
2017-07-05T03:02:27.792Z,71.20
2017-07-05T03:05:01.608Z,70.30
2017-07-05T03:07:35.471Z,72.00
2017-07-05T03:10:09.210Z,72.70
2017-07-05T03:12:42.910Z,70.20
2017-07-05T03:15:16.742Z,71.30
2017-07-05T03:17:50.365Z,71.40
2017-07-05T03:20:24.004Z,72.00
2017-07-05T03:22:57.660Z,70.70
2017-07-05T03:25:31.465Z,72.30
2017-07-05T03:28:05.298Z,72.10
2017-07-05T03:30:38.906Z,70.40
2017-07-05T03:33:12.790Z,71.10
2017-07-05T03:35:46.466Z,72.60
2017-07-05T03:38:20.917Z,70.00
2017-07-05T03:40:54.780Z,70.00
2017-07-05T03:43:30.181Z,69.10
2017-07-05T03:46:04.849Z,69.70
2017-07-05T03:48:38.718Z,69.70
2017-07-05T03:51:12.369Z,69.90
2017-07-05T03:53:46.138Z,70.00
2017-07-05T03:56:20.584Z,70.50
2017-07-05T03:58:54.599Z,70.50
2017-07-05T04:01:29.200Z,70.80
2017-07-05T04:04:02.853Z,71.30
2017-07-05T04:06:36.534Z,72.20
2017-07-05T04:09:10.237Z,71.00
2017-07-05T04:11:44.661Z,70.80
2017-07-05T04:14:18.585Z,70.70
2017-07-05T04:16:52.985Z,70.50
2017-07-05T04:19:27.859Z,70.60
2017-07-05T04:22:01.850Z,69.80
2017-07-05T04:24:35.622Z,70.50
2017-07-05T04:27:10.974Z,69.60
2017-07-05T04:29:45.618Z,69.00
2017-07-05T04:32:19.662Z,68.90
2017-07-05T04:34:53.438Z,69.80
2017-07-05T04:37:27.125Z,68.80
2017-07-05T04:40:00.996Z,69.10
2017-07-05T04:42:35.450Z,67.90
2017-07-05T04:45:09.314Z,67.70
2017-07-05T04:47:43.862Z,68.90
2017-07-05T04:50:18.462Z,70.20
2017-07-05T04:52:52.253Z,70.30
2017-07-05T04:55:27.061Z,72.50
2017-07-05T04:58:00.770Z,71.70
2017-07-05T05:00:34.567Z,71.80
2017-07-05T05:03:08.186Z,71.00
2017-07-05T05:05:42.777Z,70.80
2017-07-05T05:08:16.790Z,70.70
2017-07-05T05:10:50.682Z,71.70
2017-07-05T05:13:25.189Z,70.40
2017-07-05T05:16:00.784Z,68.90
2017-07-05T05:18:35.690Z,71.00
2017-07-05T05:21:09.656Z,70.90
2017-07-05T05:23:43.325Z,70.80
2017-07-05T05:26:17.190Z,70.50
2017-07-05T05:28:50.789Z,70.50
2017-07-05T05:31:24.720Z,71.50
2017-07-05T05:33:59.954Z,66.70
2017-07-05T05:36:34.026Z,66.60
2017-07-05T05:39:07.625Z,67.10
2017-07-05T05:41:41.370Z,67.60
2017-07-05T05:44:15.078Z,68.60
2017-07-05T05:46:48.869Z,70.40
2017-07-05T05:49:23.405Z,69.90
2017-07-05T05:51:57.354Z,69.90
2017-07-05T05:54:32.662Z,69.90
2017-07-05T05:57:06.641Z,69.80
2017-07-05T05:59:41.089Z,68.00
2017-07-05T06:02:15.848Z,67.60
2017-07-05T06:04:49.664Z,68.20
2017-07-05T06:07:24.173Z,69.00
2017-07-05T06:09:58.881Z,67.80
2017-07-05T06:12:32.930Z,67.80
2017-07-05T06:15:06.596Z,67.40
2017-07-05T06:17:40.423Z,67.60
2017-07-05T06:20:14.917Z,68.50
2017-07-05T06:22:49.021Z,68.50
2017-07-05T06:25:22.638Z,67.00
2017-07-05T06:27:56.403Z,67.10
2017-07-05T06:30:30.761Z,64.30
2017-07-05T06:33:05.401Z,65.70
2017-07-05T06:35:39.474Z,65.50
2017-07-05T06:38:13.183Z,66.10
2017-07-05T06:40:47.722Z,66.20
2017-07-05T06:43:21.597Z,66.20
2017-07-05T06:45:55.314Z,66.60
2017-07-05T06:48:29.021Z,67.60
2017-07-05T06:51:02.623Z,66.00
2017-07-05T06:53:36.331Z,65.70
2017-07-05T06:56:09.947Z,64.10
2017-07-05T06:58:43.750Z,64.50
2017-07-05T07:01:17.449Z,64.70
2017-07-05T07:03:52.009Z,64.80
2017-07-05T07:06:25.609Z,63.50
2017-07-05T07:09:00.128Z,63.80
2017-07-05T07:11:33.946Z,63.00
2017-07-05T07:14:08.558Z,63.00
2017-07-05T07:16:42.275Z,62.30
2017-07-05T07:19:16.806Z,62.10
2017-07-05T07:21:50.657Z,62.10
2017-07-05T07:24:24.553Z,61.60
2017-07-05T07:26:58.287Z,62.30
2017-07-05T07:29:32.829Z,62.50
2017-07-05T07:32:06.954Z,61.70
2017-07-05T07:34:40.689Z,61.90
2017-07-05T07:37:15.137Z,62.00
2017-07-05T07:39:48.994Z,62.00
2017-07-05T07:42:23.507Z,62.30
2017-07-05T07:44:58.136Z,62.30
2017-07-05T07:47:31.793Z,62.80
2017-07-05T07:50:05.553Z,62.50
2017-07-05T07:52:39.197Z,62.20
2017-07-05T07:55:13.937Z,61.00
2017-07-05T07:57:47.654Z,61.60
2017-07-05T08:00:21.380Z,61.80
2017-07-05T08:02:56.010Z,60.20
2017-07-05T08:05:30.517Z,59.90
2017-07-05T08:08:05.009Z,60.10
2017-07-05T08:10:38.978Z,60.00
2017-07-05T08:13:12.569Z,59.30
2017-07-05T08:15:46.269Z,58.20
2017-07-05T08:18:19.949Z,58.00
2017-07-05T08:20:53.734Z,59.10
2017-07-05T08:23:28.158Z,57.50
2017-07-05T08:26:03.034Z,57.40
2017-07-05T08:28:36.721Z,57.00
2017-07-05T08:31:10.490Z,56.80
2017-07-05T08:33:44.210Z,55.10
2017-07-05T08:36:17.985Z,56.00
2017-07-05T08:38:52.517Z,56.10
2017-07-05T08:41:26.715Z,56.10
2017-07-05T08:44:01.336Z,54.90
2017-07-05T08:46:35.157Z,54.20
2017-07-05T08:49:09.589Z,54.50
2017-07-05T08:51:44.358Z,55.60
2017-07-05T08:54:18.946Z,53.40
2017-07-05T08:56:52.923Z,53.50
2017-07-05T08:59:26.565Z,55.10
2017-07-05T09:02:02.024Z,55.10
2017-07-05T09:04:36.630Z,54.50
2017-07-05T09:07:10.833Z,54.40
2017-07-05T09:09:45.449Z,55.40
2017-07-05T09:12:19.908Z,54.20
2017-07-05T09:14:53.665Z,54.10
2017-07-05T09:17:27.420Z,54.70
2017-07-05T09:20:01.046Z,54.20
2017-07-05T09:22:35.661Z,52.30
2017-07-05T09:25:09.494Z,52.20
2017-07-05T09:27:44.186Z,52.90
2017-07-05T09:30:18.078Z,52.20
2017-07-05T09:32:52.509Z,51.90
2017-07-05T09:35:26.334Z,51.90
2017-07-05T09:38:00.947Z,50.90
2017-07-05T09:40:34.798Z,50.80
2017-07-05T09:43:08.553Z,51.50
2017-07-05T09:45:42.296Z,53.00
2017-07-05T09:48:16.713Z,52.40
2017-07-05T09:50:51.265Z,53.00
2017-07-05T09:53:25.354Z,52.70
2017-07-05T09:55:59.909Z,51.40
2017-07-05T09:58:34.569Z,51.30
2017-07-05T10:01:09.053Z,51.10
2017-07-05T10:03:43.265Z,50.80
2017-07-05T10:06:17.688Z,51.30
2017-07-05T10:08:51.668Z,50.50
2017-07-05T10:11:27.041Z,51.10
2017-07-05T10:14:01.129Z,50.60
2017-07-05T10:16:34.737Z,48.60
2017-07-05T10:19:08.541Z,47.60
2017-07-05T10:21:43.126Z,47.60
2017-07-05T10:24:16.779Z,46.80
2017-07-05T10:26:51.346Z,47.20
2017-07-05T10:29:25.097Z,47.80
2017-07-05T10:31:59.448Z,47.80
2017-07-05T10:34:34.307Z,47.70
2017-07-05T10:37:08.214Z,47.80
2017-07-05T10:39:42.030Z,47.40
2017-07-05T10:42:15.743Z,47.50
2017-07-05T10:44:49.476Z,48.30
2017-07-05T10:47:23.918Z,47.70
2017-07-05T10:49:58.578Z,48.40
2017-07-05T10:52:33.374Z,48.50
2017-07-05T10:55:07.406Z,48.30
2017-07-05T10:57:41.802Z,44.40
2017-07-05T11:00:16.541Z,44.00
2017-07-05T11:02:51.162Z,43.10
2017-07-05T11:05:26.118Z,44.40
2017-07-05T11:08:00.026Z,43.90
2017-07-05T11:10:34.556Z,43.40
2017-07-05T11:13:09.445Z,43.70
2017-07-05T11:15:43.409Z,43.70
2017-07-05T11:18:17.783Z,45.40
2017-07-05T11:20:51.769Z,45.30
2017-07-05T11:23:25.416Z,44.00
2017-07-05T11:26:00.305Z,45.80
2017-07-05T11:28:34.058Z,46.80
2017-07-05T11:31:07.881Z,45.60
2017-07-05T11:33:43.180Z,47.00
2017-07-05T11:36:17.227Z,46.90
2017-07-05T11:38:50.816Z,46.30
2017-07-05T11:41:24.570Z,46.40
2017-07-05T11:43:59.103Z,47.80
2017-07-05T11:46:33.572Z,47.90
2017-07-05T11:49:07.415Z,47.80
2017-07-05T11:51:41.970Z,45.40
2017-07-05T11:54:15.590Z,45.70
2017-07-05T11:56:50.273Z,45.90
2017-07-05T11:59:24.014Z,46.40
2017-07-05T12:01:58.629Z,47.20
2017-07-05T12:04:33.125Z,46.70
2017-07-05T12:07:07.037Z,48.00
2017-07-05T12:09:41.534Z,48.30
2017-07-05T12:12:15.608Z,48.20
2017-07-05T12:14:50.007Z,46.70
2017-07-05T12:17:24.110Z,45.80
2017-07-05T12:19:57.693Z,47.00
2017-07-05T12:22:31.464Z,46.40
2017-07-05T12:25:06.034Z,48.60
2017-07-05T12:27:39.715Z,47.60
2017-07-05T12:30:14.979Z,46.60
2017-07-05T12:32:49.142Z,47.20
2017-07-05T12:35:22.886Z,45.70
2017-07-05T12:37:57.306Z,46.80
2017-07-05T12:40:31.303Z,46.90
2017-07-05T12:43:05.627Z,45.00
2017-07-05T12:45:39.737Z,42.80
2017-07-05T12:48:13.402Z,42.20
2017-07-05T12:50:47.143Z,42.20
2017-07-05T12:53:20.933Z,42.90
2017-07-05T12:55:55.542Z,44.60
2017-07-05T12:58:30.305Z,43.90
2017-07-05T13:01:04.890Z,43.10
2017-07-05T13:03:38.958Z,43.10
2017-07-05T13:06:12.713Z,44.10
2017-07-05T13:08:46.485Z,41.60
2017-07-05T13:11:20.189Z,41.70
2017-07-05T13:13:53.999Z,42.90
2017-07-05T13:16:27.721Z,42.80
2017-07-05T13:19:01.461Z,43.40
2017-07-05T13:21:35.034Z,40.90
2017-07-05T13:24:09.530Z,41.60
2017-07-05T13:26:43.277Z,41.60
2017-07-05T13:29:17.024Z,40.70
2017-07-05T13:31:50.842Z,41.50
2017-07-05T13:34:24.541Z,40.60
2017-07-05T13:36:58.349Z,39.00
2017-07-05T13:39:32.868Z,39.50
2017-07-05T13:42:06.958Z,39.50
2017-07-05T13:44:40.733Z,38.40
2017-07-05T13:47:14.524Z,38.00
2017-07-05T13:49:48.373Z,40.40
2017-07-05T13:52:23.019Z,37.40
2017-07-05T13:54:56.848Z,39.70
2017-07-05T13:57:31.463Z,41.80
2017-07-05T14:00:05.306Z,37.00
2017-07-05T14:02:38.917Z,38.20
2017-07-05T14:05:12.975Z,39.00
2017-07-05T14:07:48.178Z,38.00
2017-07-05T14:10:22.101Z,38.10
2017-07-05T14:12:56.610Z,37.90
2017-07-05T14:15:31.262Z,39.60
2017-07-05T14:18:05.866Z,39.80
2017-07-05T14:20:40.541Z,39.50
2017-07-05T14:23:14.339Z,39.10
2017-07-05T14:25:49.942Z,33.60
2017-07-05T14:28:23.722Z,33.50
2017-07-05T14:30:57.486Z,33.00
2017-07-05T14:33:31.301Z,33.60
2017-07-05T14:36:05.720Z,33.30
2017-07-05T14:38:39.654Z,33.10
2017-07-05T14:41:13.534Z,32.90
2017-07-05T14:43:47.905Z,34.60
2017-07-05T14:46:22.689Z,32.50
2017-07-05T14:48:56.804Z,32.60
2017-07-05T14:51:30.698Z,32.00
2017-07-05T14:54:04.253Z,32.60
2017-07-05T14:56:40.022Z,30.90
2017-07-05T14:59:13.787Z,30.90
2017-07-05T15:01:48.304Z,30.60
2017-07-05T15:04:22.213Z,30.50
2017-07-05T15:06:55.958Z,32.10
2017-07-05T15:09:29.605Z,33.00
2017-07-05T15:12:03.452Z,30.90
2017-07-05T15:14:38.013Z,28.80
2017-07-05T15:17:12.713Z,28.30
2017-07-05T15:19:47.305Z,30.00
2017-07-05T15:22:21.984Z,29.60
2017-07-05T15:24:57.213Z,27.10
2017-07-05T15:27:32.983Z,28.70
2017-07-05T15:30:06.707Z,28.40
2017-07-05T15:32:40.494Z,28.50
2017-07-05T15:35:14.066Z,29.20
2017-07-05T15:37:48.543Z,28.80
2017-07-05T15:40:22.541Z,28.40
2017-07-05T15:42:56.261Z,27.70
2017-07-05T15:45:30.613Z,26.80
2017-07-05T15:48:04.581Z,26.80
2017-07-05T15:50:39.161Z,26.70
2017-07-05T15:53:13.062Z,27.50
2017-07-05T15:55:48.633Z,28.00
2017-07-05T15:58:22.466Z,27.90
2017-07-05T16:00:57.666Z,26.40
2017-07-05T16:03:31.749Z,26.40
2017-07-05T16:06:06.229Z,26.50
2017-07-05T16:08:41.829Z,26.90
2017-07-05T16:11:15.534Z,26.90
2017-07-05T16:13:49.226Z,26.90
2017-07-05T16:16:24.486Z,24.90
2017-07-05T16:18:58.398Z,24.90
2017-07-05T16:21:32.925Z,26.10
2017-07-05T16:24:06.783Z,26.10
2017-07-05T16:26:41.287Z,25.80
2017-07-05T16:29:15.810Z,26.00
2017-07-05T16:31:49.791Z,26.00
2017-07-05T16:34:24.229Z,25.80
2017-07-05T16:36:58.237Z,25.80
2017-07-05T16:39:32.850Z,25.10
2017-07-05T16:42:07.374Z,24.50
2017-07-05T16:44:42.070Z,24.40
2017-07-05T16:47:16.658Z,25.30
2017-07-05T16:49:51.213Z,24.30
2017-07-05T16:52:25.571Z,24.70
2017-07-05T16:55:00.006Z,23.60
2017-07-05T16:57:33.930Z,23.60
2017-07-05T17:00:07.828Z,22.80
2017-07-05T17:02:42.326Z,23.30
2017-07-05T17:05:15.993Z,23.10
2017-07-05T17:07:49.665Z,24.80
2017-07-05T17:10:23.448Z,26.90
2017-07-05T17:12:58.657Z,28.00
2017-07-05T17:15:32.573Z,27.70
2017-07-05T17:18:07.003Z,28.90
2017-07-05T17:20:42.415Z,30.80
2017-07-05T17:23:16.281Z,30.70
2017-07-05T17:25:51.693Z,31.60
2017-07-05T17:28:26.201Z,31.10
2017-07-05T17:31:00.201Z,31.10
2017-07-05T17:33:33.817Z,32.60
2017-07-05T17:36:08.372Z,32.20
2017-07-05T17:38:42.873Z,32.70
2017-07-05T17:41:16.827Z,32.60
2017-07-05T17:43:51.337Z,33.70
2017-07-05T17:46:25.848Z,33.70
2017-07-05T17:48:59.666Z,33.70
2017-07-05T17:51:34.190Z,33.60
2017-07-05T17:54:08.106Z,33.60
2017-07-05T17:56:43.805Z,34.00
2017-07-05T17:59:18.426Z,34.60
2017-07-05T18:01:52.297Z,34.00
2017-07-05T18:04:26.761Z,34.70
2017-07-05T18:07:00.720Z,34.70
2017-07-05T18:09:34.370Z,35.20
2017-07-05T18:12:08.936Z,35.40
2017-07-05T18:14:43.726Z,35.80
2017-07-05T18:17:17.707Z,35.80
2017-07-05T18:19:51.381Z,36.30
2017-07-05T18:22:25.892Z,36.70
2017-07-05T18:25:00.378Z,36.90
2017-07-05T18:27:36.163Z,37.40
2017-07-05T18:30:09.918Z,37.30
2017-07-05T18:32:43.705Z,37.40
2017-07-05T18:35:18.250Z,37.40
2017-07-05T18:37:51.987Z,37.40
2017-07-05T18:40:25.638Z,37.20
2017-07-05T18:43:00.853Z,36.70
2017-07-05T18:45:35.342Z,37.30
2017-07-05T18:48:09.349Z,37.30
2017-07-05T18:50:44.693Z,37.10
2017-07-05T18:53:19.353Z,37.70
2017-07-05T18:55:53.267Z,37.30
2017-07-05T19:01:14.653Z,40.10
2017-07-05T19:03:48.547Z,40.10
2017-07-05T19:06:23.087Z,43.90
2017-07-05T19:08:57.082Z,43.60
2017-07-05T19:11:31.655Z,44.30
2017-07-05T19:14:05.360Z,44.10
2017-07-05T19:16:39.823Z,45.00
2017-07-05T19:19:13.715Z,46.10
2017-07-05T19:21:48.086Z,46.30
2017-07-05T19:24:22.961Z,45.40
2017-07-05T19:26:57.654Z,43.90
2017-07-05T19:29:32.409Z,45.70
2017-07-05T19:32:06.259Z,45.80
2017-07-05T19:34:40.061Z,46.90
2017-07-05T19:37:13.747Z,47.30
2017-07-05T19:39:47.424Z,47.10
2017-07-05T19:42:21.921Z,48.00
2017-07-05T19:44:56.477Z,49.50
2017-07-05T19:47:31.143Z,49.20
2017-07-05T19:50:05.125Z,49.20
2017-07-05T19:52:39.573Z,47.20
2017-07-05T19:55:15.538Z,45.90
2017-07-05T19:57:50.062Z,46.90
2017-07-05T20:00:23.986Z,46.40
2017-07-05T20:02:57.602Z,48.90
2017-07-05T20:05:31.511Z,48.90
2017-07-05T20:08:06.081Z,49.30
2017-07-05T20:10:39.742Z,50.80
2017-07-05T20:13:13.466Z,51.60
2017-07-05T20:15:47.211Z,52.50
2017-07-05T20:18:21.742Z,53.20
2017-07-05T20:20:56.305Z,53.20
2017-07-05T20:23:30.107Z,53.10
2017-07-05T20:26:04.586Z,53.40
2017-07-05T20:28:38.309Z,53.30
2017-07-05T20:31:12.959Z,53.50
2017-07-05T20:33:46.870Z,53.40
2017-07-05T20:36:20.864Z,54.60
2017-07-05T20:38:55.274Z,54.60
2017-07-05T20:41:29.921Z,55.80
2017-07-05T20:44:03.705Z,55.80
2017-07-05T20:46:38.173Z,56.10
2017-07-05T20:49:12.066Z,56.10
2017-07-05T20:51:45.754Z,56.10
2017-07-05T20:54:19.346Z,56.90
2017-07-05T20:56:53.861Z,56.50
2017-07-05T20:59:27.628Z,57.50
2017-07-05T21:02:02.151Z,56.60
2017-07-05T21:04:36.166Z,56.50
2017-07-05T21:07:09.953Z,57.80
2017-07-05T21:09:43.609Z,57.90
2017-07-05T21:12:18.193Z,57.90
2017-07-05T21:14:51.997Z,57.80
2017-07-05T21:17:26.645Z,57.30
2017-07-05T21:20:00.505Z,57.30
2017-07-05T21:22:35.131Z,58.00
2017-07-05T21:25:09.066Z,58.00
2017-07-05T21:27:44.006Z,58.60
2017-07-05T21:30:17.714Z,58.30
2017-07-05T21:32:51.449Z,58.20
2017-07-05T21:35:25.907Z,59.10
2017-07-05T21:38:00.536Z,58.30
2017-07-05T21:40:34.661Z,58.30
2017-07-05T21:43:09.206Z,58.50
2017-07-05T21:45:43.783Z,57.70
2017-07-05T21:48:18.539Z,59.40
2017-07-05T21:50:52.547Z,59.40
2017-07-05T21:53:27.103Z,57.70
2017-07-05T21:56:01.514Z,58.20
2017-07-05T21:58:36.133Z,59.70
2017-07-05T22:01:10.897Z,59.40
2017-07-05T22:03:44.930Z,59.30
2017-07-05T22:06:18.593Z,58.80
2017-07-05T22:08:52.774Z,59.20
2017-07-05T22:11:27.858Z,58.60
2017-07-05T22:14:01.899Z,59.10
2017-07-05T22:16:35.477Z,59.40
2017-07-05T22:19:10.105Z,59.90
2017-07-05T22:21:44.526Z,60.50
2017-07-05T22:24:18.742Z,60.40
2017-07-05T22:26:54.081Z,61.40
2017-07-05T22:29:29.106Z,61.30
2017-07-05T22:32:02.886Z,59.80
2017-07-05T22:34:36.521Z,60.20
2017-07-05T22:37:10.865Z,57.20
2017-07-05T22:39:44.985Z,57.20
2017-07-05T22:42:19.494Z,58.30
2017-07-05T22:44:53.289Z,57.40
2017-07-05T22:47:27.001Z,56.00
2017-07-05T22:50:00.733Z,56.10
2017-07-05T22:52:34.510Z,55.80
2017-07-05T22:55:08.201Z,55.70
2017-07-05T22:57:42.858Z,56.20
2017-07-05T23:00:16.683Z,55.80
2017-07-05T23:02:50.461Z,55.80
2017-07-05T23:05:25.131Z,55.50
2017-07-05T23:07:59.104Z,55.50
2017-07-05T23:10:32.845Z,56.30
2017-07-05T23:13:06.662Z,55.80
2017-07-05T23:15:41.180Z,58.10
2017-07-05T23:18:15.210Z,57.90
2017-07-05T23:20:49.790Z,57.20
2017-07-05T23:23:23.550Z,57.30
2017-07-05T23:25:58.165Z,55.90
2017-07-05T23:28:32.621Z,56.00
2017-07-05T23:31:06.630Z,55.80
2017-07-05T23:33:40.339Z,56.50
2017-07-05T23:36:14.902Z,57.40
2017-07-05T23:38:49.281Z,58.40
2017-07-05T23:41:23.181Z,58.30
2017-07-05T23:43:57.620Z,55.80
2017-07-05T23:46:31.594Z,55.70
2017-07-05T23:49:05.941Z,55.60
2017-07-05T23:51:40.124Z,55.50
2017-07-05T23:54:14.577Z,56.40
2017-07-05T23:56:49.786Z,56.50
2017-07-05T23:59:24.341Z,57.70
